sensor_id;sensor_type;location;lat;lon;timestamp;P1;durP1;ratioP1;P2;durP2;ratioP2
9102;SDS011;4587;51.434;6.788;2022-10-22T00:00:12;6.43;;;2.77;;
9102;SDS011;4587;51.434;6.788;2022-10-22T00:02:40;5.27;;;2.87;;
9102;SDS011;4587;51.434;6.788;2022-10-22T00:05:06;5.30;;;2.67;;
9102;SDS011;4587;51.434;6.788;2022-10-22T00:07:32;6.80;;;2.80;;
9102;SDS011;4587;51.434;6.788;2022-10-22T00:09:58;6.17;;;2.87;;
9102;SDS011;4587;51.434;6.788;2022-10-22T00:12:24;6.80;;;2.70;;
9102;SDS011;4587;51.434;6.788;2022-10-22T00:14:50;7.37;;;2.90;;
9102;SDS011;4587;51.434;6.788;2022-10-22T00:17:16;5.27;;;2.87;;
9102;SDS011;4587;51.434;6.788;2022-10-22T00:19:41;6.40;;;2.83;;
9102;SDS011;4587;51.434;6.788;2022-10-22T00:22:07;8.13;;;2.93;;
9102;SDS011;4587;51.434;6.788;2022-10-22T00:24:34;4.77;;;2.77;;
9102;SDS011;4587;51.434;6.788;2022-10-22T00:27:01;7.90;;;3.00;;
9102;SDS011;4587;51.434;6.788;2022-10-22T00:29:27;5.93;;;2.93;;
9102;SDS011;4587;51.434;6.788;2022-10-22T00:31:52;5.13;;;2.93;;
9102;SDS011;4587;51.434;6.788;2022-10-22T00:34:19;4.87;;;3.03;;
9102;SDS011;4587;51.434;6.788;2022-10-22T00:36:47;4.90;;;2.80;;
9102;SDS011;4587;51.434;6.788;2022-10-22T00:39:14;7.10;;;3.07;;
9102;SDS011;4587;51.434;6.788;2022-10-22T00:41:41;7.30;;;3.37;;
9102;SDS011;4587;51.434;6.788;2022-10-22T00:44:57;6.00;;;2.87;;
9102;SDS011;4587;51.434;6.788;2022-10-22T00:47:12;6.87;;;3.17;;
9102;SDS011;4587;51.434;6.788;2022-10-22T00:49:39;6.37;;;3.10;;
9102;SDS011;4587;51.434;6.788;2022-10-22T00:52:04;4.90;;;2.97;;
9102;SDS011;4587;51.434;6.788;2022-10-22T00:54:30;6.37;;;3.07;;
9102;SDS011;4587;51.434;6.788;2022-10-22T00:56:57;7.43;;;2.90;;
9102;SDS011;4587;51.434;6.788;2022-10-22T00:59:22;7.60;;;3.00;;
9102;SDS011;4587;51.434;6.788;2022-10-22T01:01:48;6.17;;;3.13;;
9102;SDS011;4587;51.434;6.788;2022-10-22T01:04:14;5.77;;;3.27;;
9102;SDS011;4587;51.434;6.788;2022-10-22T01:06:40;6.80;;;3.20;;
9102;SDS011;4587;51.434;6.788;2022-10-22T01:09:10;6.40;;;2.87;;
9102;SDS011;4587;51.434;6.788;2022-10-22T01:11:53;6.93;;;3.40;;
9102;SDS011;4587;51.434;6.788;2022-10-22T01:28:53;7.63;;;3.40;;
9102;SDS011;4587;51.434;6.788;2022-10-22T01:31:40;6.20;;;3.43;;
9102;SDS011;4587;51.434;6.788;2022-10-22T01:34:09;9.60;;;3.10;;
9102;SDS011;4587;51.434;6.788;2022-10-22T01:36:38;8.90;;;3.20;;
9102;SDS011;4587;51.434;6.788;2022-10-22T01:39:04;6.53;;;3.03;;
9102;SDS011;4587;51.434;6.788;2022-10-22T01:41:33;6.90;;;3.43;;
9102;SDS011;4587;51.434;6.788;2022-10-22T01:43:59;11.50;;;3.70;;
9102;SDS011;4587;51.434;6.788;2022-10-22T01:46:25;7.67;;;3.23;;
9102;SDS011;4587;51.434;6.788;2022-10-22T01:54:24;9.67;;;3.83;;
9102;SDS011;4587;51.434;6.788;2022-10-22T02:00:11;7.13;;;3.60;;
9102;SDS011;4587;51.434;6.788;2022-10-22T02:08:18;8.57;;;3.80;;
9102;SDS011;4587;51.434;6.788;2022-10-22T02:10:47;9.03;;;3.50;;
9102;SDS011;4587;51.434;6.788;2022-10-22T02:13:15;12.20;;;3.40;;
9102;SDS011;4587;51.434;6.788;2022-10-22T02:15:57;5.80;;;3.67;;
9102;SDS011;4587;51.434;6.788;2022-10-22T02:18:27;8.93;;;3.80;;
9102;SDS011;4587;51.434;6.788;2022-10-22T02:20:56;7.20;;;3.77;;
9102;SDS011;4587;51.434;6.788;2022-10-22T02:23:22;7.23;;;3.53;;
9102;SDS011;4587;51.434;6.788;2022-10-22T02:25:50;9.10;;;3.77;;
9102;SDS011;4587;51.434;6.788;2022-10-22T02:30:54;9.57;;;4.00;;
9102;SDS011;4587;51.434;6.788;2022-10-22T02:33:32;9.97;;;4.37;;
9102;SDS011;4587;51.434;6.788;2022-10-22T02:36:02;6.83;;;3.97;;
9102;SDS011;4587;51.434;6.788;2022-10-22T02:38:29;10.07;;;4.30;;
9102;SDS011;4587;51.434;6.788;2022-10-22T02:40:56;7.23;;;3.83;;
9102;SDS011;4587;51.434;6.788;2022-10-22T02:43:22;8.43;;;4.10;;
9102;SDS011;4587;51.434;6.788;2022-10-22T02:45:48;9.60;;;4.00;;
9102;SDS011;4587;51.434;6.788;2022-10-22T02:48:14;6.63;;;3.50;;
9102;SDS011;4587;51.434;6.788;2022-10-22T02:50:40;5.70;;;3.63;;
9102;SDS011;4587;51.434;6.788;2022-10-22T02:53:05;7.53;;;3.70;;
9102;SDS011;4587;51.434;6.788;2022-10-22T02:55:31;4.97;;;3.23;;
9102;SDS011;4587;51.434;6.788;2022-10-22T02:57:56;7.67;;;3.83;;
9102;SDS011;4587;51.434;6.788;2022-10-22T03:00:22;9.37;;;4.00;;
9102;SDS011;4587;51.434;6.788;2022-10-22T03:02:48;7.13;;;3.70;;
9102;SDS011;4587;51.434;6.788;2022-10-22T03:05:13;9.93;;;3.80;;
9102;SDS011;4587;51.434;6.788;2022-10-22T03:07:39;9.73;;;3.97;;
9102;SDS011;4587;51.434;6.788;2022-10-22T03:10:04;7.20;;;3.80;;
9102;SDS011;4587;51.434;6.788;2022-10-22T03:12:30;9.90;;;3.87;;
9102;SDS011;4587;51.434;6.788;2022-10-22T03:14:56;7.73;;;3.97;;
9102;SDS011;4587;51.434;6.788;2022-10-22T03:17:21;9.33;;;3.60;;
9102;SDS011;4587;51.434;6.788;2022-10-22T03:19:47;9.10;;;3.90;;
9102;SDS011;4587;51.434;6.788;2022-10-22T03:22:14;10.53;;;3.93;;
9102;SDS011;4587;51.434;6.788;2022-10-22T03:24:46;11.00;;;3.83;;
9102;SDS011;4587;51.434;6.788;2022-10-22T03:27:15;7.43;;;3.90;;
9102;SDS011;4587;51.434;6.788;2022-10-22T03:29:43;8.03;;;3.80;;
9102;SDS011;4587;51.434;6.788;2022-10-22T03:32:11;6.17;;;3.40;;
9102;SDS011;4587;51.434;6.788;2022-10-22T03:34:37;6.60;;;3.80;;
9102;SDS011;4587;51.434;6.788;2022-10-22T03:37:02;9.30;;;4.23;;
9102;SDS011;4587;51.434;6.788;2022-10-22T03:39:28;10.50;;;4.20;;
9102;SDS011;4587;51.434;6.788;2022-10-22T03:41:55;10.03;;;4.47;;
9102;SDS011;4587;51.434;6.788;2022-10-22T03:44:21;9.27;;;4.20;;
9102;SDS011;4587;51.434;6.788;2022-10-22T03:46:48;8.33;;;4.17;;
9102;SDS011;4587;51.434;6.788;2022-10-22T03:49:14;6.33;;;4.33;;
9102;SDS011;4587;51.434;6.788;2022-10-22T03:51:39;6.77;;;4.60;;
9102;SDS011;4587;51.434;6.788;2022-10-22T03:54:05;7.17;;;4.03;;
9102;SDS011;4587;51.434;6.788;2022-10-22T03:56:31;8.23;;;4.40;;
9102;SDS011;4587;51.434;6.788;2022-10-22T03:58:57;9.00;;;4.20;;
9102;SDS011;4587;51.434;6.788;2022-10-22T04:01:24;8.23;;;4.20;;
9102;SDS011;4587;51.434;6.788;2022-10-22T04:03:51;10.27;;;4.60;;
9102;SDS011;4587;51.434;6.788;2022-10-22T04:06:17;7.93;;;4.30;;
9102;SDS011;4587;51.434;6.788;2022-10-22T04:08:43;11.73;;;5.03;;
9102;SDS011;4587;51.434;6.788;2022-10-22T04:11:09;10.77;;;4.33;;
9102;SDS011;4587;51.434;6.788;2022-10-22T04:13:36;11.20;;;4.33;;
9102;SDS011;4587;51.434;6.788;2022-10-22T04:16:12;10.10;;;4.70;;
9102;SDS011;4587;51.434;6.788;2022-10-22T04:18:39;7.47;;;4.47;;
9102;SDS011;4587;51.434;6.788;2022-10-22T04:21:06;9.23;;;4.57;;
9102;SDS011;4587;51.434;6.788;2022-10-22T04:23:33;8.07;;;4.60;;
9102;SDS011;4587;51.434;6.788;2022-10-22T04:25:59;10.20;;;4.53;;
9102;SDS011;4587;51.434;6.788;2022-10-22T04:28:26;8.10;;;4.87;;
9102;SDS011;4587;51.434;6.788;2022-10-22T04:30:52;7.67;;;4.40;;
9102;SDS011;4587;51.434;6.788;2022-10-22T04:33:18;9.00;;;4.63;;
9102;SDS011;4587;51.434;6.788;2022-10-22T04:35:43;10.17;;;4.93;;
9102;SDS011;4587;51.434;6.788;2022-10-22T04:38:09;6.53;;;4.50;;
9102;SDS011;4587;51.434;6.788;2022-10-22T04:40:36;6.20;;;4.33;;
9102;SDS011;4587;51.434;6.788;2022-10-22T04:43:01;7.80;;;4.40;;
9102;SDS011;4587;51.434;6.788;2022-10-22T04:45:27;8.27;;;4.60;;
9102;SDS011;4587;51.434;6.788;2022-10-22T04:47:52;7.40;;;4.60;;
9102;SDS011;4587;51.434;6.788;2022-10-22T04:50:18;7.67;;;4.47;;
9102;SDS011;4587;51.434;6.788;2022-10-22T04:52:44;7.83;;;4.60;;
9102;SDS011;4587;51.434;6.788;2022-10-22T04:55:09;6.83;;;4.57;;
9102;SDS011;4587;51.434;6.788;2022-10-22T04:57:35;7.20;;;4.63;;
9102;SDS011;4587;51.434;6.788;2022-10-22T05:00:00;8.53;;;5.37;;
9102;SDS011;4587;51.434;6.788;2022-10-22T05:02:26;9.30;;;4.80;;
9102;SDS011;4587;51.434;6.788;2022-10-22T05:04:51;9.70;;;4.80;;
9102;SDS011;4587;51.434;6.788;2022-10-22T05:07:17;11.10;;;5.33;;
9102;SDS011;4587;51.434;6.788;2022-10-22T05:09:43;9.90;;;5.33;;
9102;SDS011;4587;51.434;6.788;2022-10-22T05:12:08;8.83;;;5.00;;
9102;SDS011;4587;51.434;6.788;2022-10-22T05:14:34;8.20;;;5.30;;
9102;SDS011;4587;51.434;6.788;2022-10-22T05:16:59;8.73;;;5.07;;
9102;SDS011;4587;51.434;6.788;2022-10-22T05:19:26;8.57;;;4.87;;
9102;SDS011;4587;51.434;6.788;2022-10-22T05:21:58;7.77;;;5.40;;
9102;SDS011;4587;51.434;6.788;2022-10-22T05:24:26;8.73;;;4.90;;
9102;SDS011;4587;51.434;6.788;2022-10-22T05:26:53;14.03;;;5.30;;
9102;SDS011;4587;51.434;6.788;2022-10-22T05:29:20;8.50;;;5.10;;
9102;SDS011;4587;51.434;6.788;2022-10-22T05:31:46;7.87;;;5.17;;
9102;SDS011;4587;51.434;6.788;2022-10-22T05:34:12;8.43;;;5.30;;
9102;SDS011;4587;51.434;6.788;2022-10-22T05:36:38;13.33;;;5.30;;
9102;SDS011;4587;51.434;6.788;2022-10-22T05:39:04;7.73;;;5.37;;
9102;SDS011;4587;51.434;6.788;2022-10-22T05:41:31;6.43;;;5.10;;
9102;SDS011;4587;51.434;6.788;2022-10-22T05:43:57;16.53;;;5.30;;
9102;SDS011;4587;51.434;6.788;2022-10-22T05:46:24;8.33;;;5.03;;
9102;SDS011;4587;51.434;6.788;2022-10-22T05:48:54;10.40;;;5.50;;
9102;SDS011;4587;51.434;6.788;2022-10-22T05:51:21;9.97;;;5.00;;
9102;SDS011;4587;51.434;6.788;2022-10-22T05:53:52;9.80;;;5.50;;
9102;SDS011;4587;51.434;6.788;2022-10-22T05:56:23;7.83;;;5.47;;
9102;SDS011;4587;51.434;6.788;2022-10-22T05:58:49;7.37;;;5.33;;
9102;SDS011;4587;51.434;6.788;2022-10-22T06:01:17;6.73;;;5.00;;
9102;SDS011;4587;51.434;6.788;2022-10-22T06:03:44;8.23;;;5.27;;
9102;SDS011;4587;51.434;6.788;2022-10-22T06:06:14;7.10;;;5.27;;
9102;SDS011;4587;51.434;6.788;2022-10-22T06:08:46;9.87;;;5.60;;
9102;SDS011;4587;51.434;6.788;2022-10-22T06:11:13;8.60;;;5.30;;
9102;SDS011;4587;51.434;6.788;2022-10-22T06:13:41;13.27;;;6.03;;
9102;SDS011;4587;51.434;6.788;2022-10-22T06:16:07;11.80;;;5.93;;
9102;SDS011;4587;51.434;6.788;2022-10-22T06:18:33;8.00;;;5.50;;
9102;SDS011;4587;51.434;6.788;2022-10-22T06:21:09;8.77;;;6.03;;
9102;SDS011;4587;51.434;6.788;2022-10-22T06:23:36;10.90;;;6.33;;
9102;SDS011;4587;51.434;6.788;2022-10-22T06:26:03;8.97;;;6.20;;
9102;SDS011;4587;51.434;6.788;2022-10-22T06:28:30;9.47;;;6.40;;
9102;SDS011;4587;51.434;6.788;2022-10-22T06:30:56;8.23;;;6.37;;
9102;SDS011;4587;51.434;6.788;2022-10-22T06:33:23;9.90;;;6.57;;
9102;SDS011;4587;51.434;6.788;2022-10-22T06:35:49;10.43;;;6.27;;
9102;SDS011;4587;51.434;6.788;2022-10-22T06:38:14;12.40;;;6.30;;
9102;SDS011;4587;51.434;6.788;2022-10-22T06:40:40;14.80;;;6.50;;
9102;SDS011;4587;51.434;6.788;2022-10-22T06:43:09;8.00;;;6.40;;
9102;SDS011;4587;51.434;6.788;2022-10-22T06:45:36;11.70;;;5.90;;
9102;SDS011;4587;51.434;6.788;2022-10-22T06:48:02;10.33;;;6.13;;
9102;SDS011;4587;51.434;6.788;2022-10-22T06:50:27;11.07;;;6.10;;
9102;SDS011;4587;51.434;6.788;2022-10-22T06:52:53;13.33;;;6.30;;
9102;SDS011;4587;51.434;6.788;2022-10-22T06:55:19;9.77;;;6.00;;
9102;SDS011;4587;51.434;6.788;2022-10-22T06:57:44;9.70;;;6.30;;
9102;SDS011;4587;51.434;6.788;2022-10-22T07:00:10;9.83;;;6.67;;
9102;SDS011;4587;51.434;6.788;2022-10-22T07:02:36;9.27;;;6.77;;
9102;SDS011;4587;51.434;6.788;2022-10-22T07:05:01;11.73;;;6.07;;
9102;SDS011;4587;51.434;6.788;2022-10-22T07:07:27;7.83;;;5.20;;
9102;SDS011;4587;51.434;6.788;2022-10-22T07:09:53;8.67;;;4.73;;
9102;SDS011;4587;51.434;6.788;2022-10-22T07:12:18;9.17;;;4.37;;
9102;SDS011;4587;51.434;6.788;2022-10-22T07:14:44;10.53;;;4.10;;
9102;SDS011;4587;51.434;6.788;2022-10-22T07:17:09;10.60;;;3.97;;
9102;SDS011;4587;51.434;6.788;2022-10-22T07:19:35;7.10;;;3.97;;
9102;SDS011;4587;51.434;6.788;2022-10-22T07:22:01;11.47;;;3.80;;
9102;SDS011;4587;51.434;6.788;2022-10-22T07:24:26;8.20;;;3.53;;
9102;SDS011;4587;51.434;6.788;2022-10-22T07:26:52;11.00;;;3.77;;
9102;SDS011;4587;51.434;6.788;2022-10-22T07:29:18;7.80;;;3.60;;
9102;SDS011;4587;51.434;6.788;2022-10-22T07:31:43;7.37;;;3.90;;
9102;SDS011;4587;51.434;6.788;2022-10-22T07:34:09;11.30;;;3.60;;
9102;SDS011;4587;51.434;6.788;2022-10-22T07:36:35;8.70;;;3.70;;
9102;SDS011;4587;51.434;6.788;2022-10-22T07:39:01;10.50;;;4.07;;
9102;SDS011;4587;51.434;6.788;2022-10-22T07:41:27;6.17;;;3.40;;
9102;SDS011;4587;51.434;6.788;2022-10-22T07:43:54;6.00;;;3.40;;
9102;SDS011;4587;51.434;6.788;2022-10-22T07:46:21;9.57;;;3.80;;
9102;SDS011;4587;51.434;6.788;2022-10-22T07:48:47;6.87;;;3.53;;
9102;SDS011;4587;51.434;6.788;2022-10-22T07:51:13;7.87;;;3.30;;
9102;SDS011;4587;51.434;6.788;2022-10-22T07:53:39;6.33;;;3.10;;
9102;SDS011;4587;51.434;6.788;2022-10-22T07:56:05;8.20;;;3.17;;
9102;SDS011;4587;51.434;6.788;2022-10-22T07:58:31;5.77;;;2.93;;
9102;SDS011;4587;51.434;6.788;2022-10-22T08:00:57;8.17;;;3.07;;
9102;SDS011;4587;51.434;6.788;2022-10-22T08:03:26;6.07;;;2.63;;
9102;SDS011;4587;51.434;6.788;2022-10-22T08:05:53;6.80;;;2.90;;
9102;SDS011;4587;51.434;6.788;2022-10-22T08:08:19;8.03;;;2.40;;
9102;SDS011;4587;51.434;6.788;2022-10-22T08:10:46;8.67;;;2.67;;
9102;SDS011;4587;51.434;6.788;2022-10-22T08:13:12;11.30;;;3.00;;
9102;SDS011;4587;51.434;6.788;2022-10-22T08:15:38;7.97;;;2.57;;
9102;SDS011;4587;51.434;6.788;2022-10-22T08:18:04;7.80;;;2.53;;
9102;SDS011;4587;51.434;6.788;2022-10-22T08:20:30;7.40;;;2.60;;
9102;SDS011;4587;51.434;6.788;2022-10-22T08:22:55;8.97;;;2.70;;
9102;SDS011;4587;51.434;6.788;2022-10-22T08:25:22;5.80;;;2.53;;
9102;SDS011;4587;51.434;6.788;2022-10-22T08:27:48;9.57;;;2.40;;
9102;SDS011;4587;51.434;6.788;2022-10-22T08:30:14;10.47;;;2.73;;
9102;SDS011;4587;51.434;6.788;2022-10-22T08:32:40;9.23;;;2.97;;
9102;SDS011;4587;51.434;6.788;2022-10-22T08:35:05;4.30;;;2.23;;
9102;SDS011;4587;51.434;6.788;2022-10-22T08:37:31;5.87;;;2.60;;
9102;SDS011;4587;51.434;6.788;2022-10-22T08:39:57;9.07;;;2.60;;
9102;SDS011;4587;51.434;6.788;2022-10-22T08:50:55;6.43;;;2.53;;
9102;SDS011;4587;51.434;6.788;2022-10-22T08:53:27;8.90;;;2.40;;
9102;SDS011;4587;51.434;6.788;2022-10-22T08:55:58;7.20;;;2.30;;
9102;SDS011;4587;51.434;6.788;2022-10-22T09:01:21;6.50;;;2.47;;
9102;SDS011;4587;51.434;6.788;2022-10-22T09:04:00;7.33;;;2.33;;
9102;SDS011;4587;51.434;6.788;2022-10-22T09:06:49;8.80;;;2.10;;
9102;SDS011;4587;51.434;6.788;2022-10-22T09:09:18;6.90;;;2.60;;
9102;SDS011;4587;51.434;6.788;2022-10-22T09:11:46;8.17;;;2.57;;
9102;SDS011;4587;51.434;6.788;2022-10-22T09:14:14;10.03;;;2.30;;
9102;SDS011;4587;51.434;6.788;2022-10-22T09:19:19;6.17;;;2.03;;
9102;SDS011;4587;51.434;6.788;2022-10-22T09:24:58;8.57;;;2.13;;
9102;SDS011;4587;51.434;6.788;2022-10-22T09:27:35;9.03;;;2.30;;
9102;SDS011;4587;51.434;6.788;2022-10-22T09:30:00;6.50;;;1.87;;
9102;SDS011;4587;51.434;6.788;2022-10-22T09:32:27;9.37;;;2.20;;
9102;SDS011;4587;51.434;6.788;2022-10-22T09:34:55;7.73;;;2.23;;
9102;SDS011;4587;51.434;6.788;2022-10-22T09:37:24;7.73;;;2.23;;
9102;SDS011;4587;51.434;6.788;2022-10-22T09:39:51;7.87;;;2.20;;
9102;SDS011;4587;51.434;6.788;2022-10-22T09:42:18;5.80;;;1.90;;
9102;SDS011;4587;51.434;6.788;2022-10-22T09:44:56;7.67;;;1.90;;
9102;SDS011;4587;51.434;6.788;2022-10-22T09:47:39;5.30;;;1.77;;
9102;SDS011;4587;51.434;6.788;2022-10-22T09:52:58;6.67;;;1.77;;
9102;SDS011;4587;51.434;6.788;2022-10-22T09:55:28;4.53;;;1.70;;
9102;SDS011;4587;51.434;6.788;2022-10-22T09:57:54;6.20;;;1.97;;
9102;SDS011;4587;51.434;6.788;2022-10-22T10:00:22;5.67;;;1.73;;
9102;SDS011;4587;51.434;6.788;2022-10-22T10:02:52;6.83;;;2.07;;
9102;SDS011;4587;51.434;6.788;2022-10-22T10:05:40;3.83;;;1.50;;
9102;SDS011;4587;51.434;6.788;2022-10-22T10:08:11;7.37;;;1.57;;
9102;SDS011;4587;51.434;6.788;2022-10-22T10:16:26;8.47;;;1.90;;
9102;SDS011;4587;51.434;6.788;2022-10-22T10:19:01;5.60;;;1.93;;
9102;SDS011;4587;51.434;6.788;2022-10-22T10:27:14;5.57;;;1.53;;
9102;SDS011;4587;51.434;6.788;2022-10-22T10:35:40;10.60;;;1.60;;
9102;SDS011;4587;51.434;6.788;2022-10-22T10:41:18;7.73;;;1.73;;
9102;SDS011;4587;51.434;6.788;2022-10-22T10:46:28;5.20;;;1.50;;
9102;SDS011;4587;51.434;6.788;2022-10-22T10:49:26;5.03;;;1.50;;
9102;SDS011;4587;51.434;6.788;2022-10-22T10:59:51;10.73;;;2.03;;
9102;SDS011;4587;51.434;6.788;2022-10-22T11:07:38;7.17;;;1.77;;
9102;SDS011;4587;51.434;6.788;2022-10-22T11:10:26;7.57;;;2.10;;
9102;SDS011;4587;51.434;6.788;2022-10-22T11:13:02;7.17;;;2.20;;
9102;SDS011;4587;51.434;6.788;2022-10-22T11:15:33;7.67;;;2.10;;
9102;SDS011;4587;51.434;6.788;2022-10-22T11:18:11;6.93;;;2.00;;
9102;SDS011;4587;51.434;6.788;2022-10-22T11:20:47;7.37;;;2.07;;
9102;SDS011;4587;51.434;6.788;2022-10-22T11:23:16;7.23;;;2.30;;
9102;SDS011;4587;51.434;6.788;2022-10-22T11:25:49;7.33;;;1.67;;
9102;SDS011;4587;51.434;6.788;2022-10-22T11:31:05;7.63;;;1.50;;
9102;SDS011;4587;51.434;6.788;2022-10-22T11:33:41;5.07;;;1.60;;
9102;SDS011;4587;51.434;6.788;2022-10-22T11:36:10;5.50;;;1.77;;
9102;SDS011;4587;51.434;6.788;2022-10-22T11:38:37;5.97;;;1.60;;
9102;SDS011;4587;51.434;6.788;2022-10-22T11:41:10;6.13;;;1.60;;
9102;SDS011;4587;51.434;6.788;2022-10-22T11:48:44;4.47;;;1.63;;
9102;SDS011;4587;51.434;6.788;2022-10-22T11:51:44;4.27;;;1.73;;
9102;SDS011;4587;51.434;6.788;2022-10-22T11:59:39;6.73;;;2.53;;
9102;SDS011;4587;51.434;6.788;2022-10-22T12:02:24;8.60;;;2.47;;
9102;SDS011;4587;51.434;6.788;2022-10-22T12:05:52;8.50;;;2.60;;
9102;SDS011;4587;51.434;6.788;2022-10-22T12:10:35;5.90;;;2.30;;
9102;SDS011;4587;51.434;6.788;2022-10-22T12:13:22;6.33;;;2.27;;
9102;SDS011;4587;51.434;6.788;2022-10-22T12:15:51;7.20;;;1.97;;
9102;SDS011;4587;51.434;6.788;2022-10-22T12:18:22;4.50;;;1.50;;
9102;SDS011;4587;51.434;6.788;2022-10-22T12:21:03;4.07;;;1.40;;
9102;SDS011;4587;51.434;6.788;2022-10-22T12:23:30;6.73;;;1.80;;
9102;SDS011;4587;51.434;6.788;2022-10-22T12:25:59;5.47;;;1.57;;
9102;SDS011;4587;51.434;6.788;2022-10-22T12:28:24;4.50;;;1.40;;
9102;SDS011;4587;51.434;6.788;2022-10-22T12:30:50;7.43;;;1.30;;
9102;SDS011;4587;51.434;6.788;2022-10-22T12:33:20;4.03;;;1.40;;
9102;SDS011;4587;51.434;6.788;2022-10-22T12:35:47;4.57;;;1.70;;
9102;SDS011;4587;51.434;6.788;2022-10-22T12:38:18;5.70;;;1.50;;
9102;SDS011;4587;51.434;6.788;2022-10-22T12:40:46;7.17;;;1.90;;
9102;SDS011;4587;51.434;6.788;2022-10-22T12:43:15;5.27;;;1.50;;
9102;SDS011;4587;51.434;6.788;2022-10-22T12:45:43;6.90;;;1.80;;
9102;SDS011;4587;51.434;6.788;2022-10-22T12:48:16;7.27;;;1.80;;
9102;SDS011;4587;51.434;6.788;2022-10-22T12:50:48;4.07;;;1.40;;
9102;SDS011;4587;51.434;6.788;2022-10-22T12:53:21;5.93;;;1.53;;
9102;SDS011;4587;51.434;6.788;2022-10-22T12:56:10;4.53;;;1.57;;
9102;SDS011;4587;51.434;6.788;2022-10-22T12:58:40;4.87;;;1.40;;
9102;SDS011;4587;51.434;6.788;2022-10-22T13:01:12;3.77;;;1.40;;
9102;SDS011;4587;51.434;6.788;2022-10-22T13:03:40;5.43;;;2.00;;
9102;SDS011;4587;51.434;6.788;2022-10-22T13:08:42;4.73;;;1.73;;
9102;SDS011;4587;51.434;6.788;2022-10-22T13:11:33;5.17;;;1.63;;
9102;SDS011;4587;51.434;6.788;2022-10-22T13:14:25;4.70;;;1.93;;
9102;SDS011;4587;51.434;6.788;2022-10-22T13:22:26;6.30;;;1.77;;
9102;SDS011;4587;51.434;6.788;2022-10-22T13:24:52;7.03;;;1.70;;
9102;SDS011;4587;51.434;6.788;2022-10-22T13:27:20;5.10;;;2.00;;
9102;SDS011;4587;51.434;6.788;2022-10-22T13:29:47;6.07;;;2.43;;
9102;SDS011;4587;51.434;6.788;2022-10-22T13:32:29;6.73;;;2.10;;
9102;SDS011;4587;51.434;6.788;2022-10-22T13:35:01;5.50;;;1.80;;
9102;SDS011;4587;51.434;6.788;2022-10-22T13:37:28;4.87;;;1.63;;
9102;SDS011;4587;51.434;6.788;2022-10-22T13:39:56;4.43;;;1.77;;
9102;SDS011;4587;51.434;6.788;2022-10-22T13:42:21;6.27;;;1.93;;
9102;SDS011;4587;51.434;6.788;2022-10-22T13:44:47;8.37;;;1.90;;
9102;SDS011;4587;51.434;6.788;2022-10-22T13:47:24;6.37;;;2.43;;
9102;SDS011;4587;51.434;6.788;2022-10-22T13:49:52;5.70;;;2.53;;
9102;SDS011;4587;51.434;6.788;2022-10-22T13:52:27;7.03;;;2.20;;
9102;SDS011;4587;51.434;6.788;2022-10-22T13:57:42;5.83;;;2.07;;
9102;SDS011;4587;51.434;6.788;2022-10-22T14:00:10;7.23;;;2.33;;
9102;SDS011;4587;51.434;6.788;2022-10-22T14:02:37;5.90;;;2.10;;
9102;SDS011;4587;51.434;6.788;2022-10-22T14:05:03;8.50;;;2.47;;
9102;SDS011;4587;51.434;6.788;2022-10-22T14:07:33;7.93;;;2.37;;
9102;SDS011;4587;51.434;6.788;2022-10-22T14:09:59;8.00;;;2.30;;
9102;SDS011;4587;51.434;6.788;2022-10-22T14:12:25;7.10;;;2.20;;
9102;SDS011;4587;51.434;6.788;2022-10-22T14:14:52;7.10;;;2.30;;
9102;SDS011;4587;51.434;6.788;2022-10-22T14:17:18;6.70;;;1.90;;
9102;SDS011;4587;51.434;6.788;2022-10-22T14:19:44;4.97;;;1.60;;
9102;SDS011;4587;51.434;6.788;2022-10-22T14:22:12;4.43;;;1.40;;
9102;SDS011;4587;51.434;6.788;2022-10-22T14:24:39;7.20;;;1.53;;
9102;SDS011;4587;51.434;6.788;2022-10-22T14:27:05;3.53;;;1.40;;
9102;SDS011;4587;51.434;6.788;2022-10-22T14:29:30;4.20;;;1.43;;
9102;SDS011;4587;51.434;6.788;2022-10-22T14:31:56;5.33;;;1.57;;
9102;SDS011;4587;51.434;6.788;2022-10-22T14:34:21;3.10;;;1.20;;
9102;SDS011;4587;51.434;6.788;2022-10-22T14:36:47;4.63;;;1.43;;
9102;SDS011;4587;51.434;6.788;2022-10-22T14:39:13;6.57;;;1.73;;
9102;SDS011;4587;51.434;6.788;2022-10-22T14:41:38;4.37;;;1.47;;
9102;SDS011;4587;51.434;6.788;2022-10-22T14:44:04;4.40;;;1.27;;
9102;SDS011;4587;51.434;6.788;2022-10-22T14:46:30;3.40;;;1.40;;
9102;SDS011;4587;51.434;6.788;2022-10-22T14:48:56;5.07;;;1.53;;
9102;SDS011;4587;51.434;6.788;2022-10-22T14:51:21;5.10;;;1.33;;
9102;SDS011;4587;51.434;6.788;2022-10-22T14:53:47;5.73;;;1.30;;
9102;SDS011;4587;51.434;6.788;2022-10-22T14:56:16;5.70;;;1.63;;
9102;SDS011;4587;51.434;6.788;2022-10-22T14:58:45;3.33;;;1.37;;
9102;SDS011;4587;51.434;6.788;2022-10-22T15:01:10;5.47;;;1.57;;
9102;SDS011;4587;51.434;6.788;2022-10-22T15:03:36;4.30;;;1.50;;
9102;SDS011;4587;51.434;6.788;2022-10-22T15:06:02;5.27;;;1.07;;
9102;SDS011;4587;51.434;6.788;2022-10-22T15:08:28;6.87;;;1.60;;
9102;SDS011;4587;51.434;6.788;2022-10-22T15:11:02;5.50;;;1.47;;
9102;SDS011;4587;51.434;6.788;2022-10-22T15:13:30;3.73;;;1.23;;
9102;SDS011;4587;51.434;6.788;2022-10-22T15:15:57;4.67;;;1.40;;
9102;SDS011;4587;51.434;6.788;2022-10-22T15:18:23;4.60;;;1.40;;
9102;SDS011;4587;51.434;6.788;2022-10-22T15:23:25;3.93;;;1.63;;
9102;SDS011;4587;51.434;6.788;2022-10-22T15:25:51;6.97;;;1.50;;
9102;SDS011;4587;51.434;6.788;2022-10-22T15:28:16;3.37;;;1.30;;
9102;SDS011;4587;51.434;6.788;2022-10-22T15:30:42;4.17;;;1.50;;
9102;SDS011;4587;51.434;6.788;2022-10-22T15:33:08;5.07;;;1.57;;
9102;SDS011;4587;51.434;6.788;2022-10-22T15:35:34;4.40;;;1.73;;
9102;SDS011;4587;51.434;6.788;2022-10-22T15:38:00;3.63;;;1.50;;
9102;SDS011;4587;51.434;6.788;2022-10-22T15:40:25;5.00;;;1.30;;
9102;SDS011;4587;51.434;6.788;2022-10-22T15:42:51;3.63;;;1.80;;
9102;SDS011;4587;51.434;6.788;2022-10-22T15:45:17;5.53;;;1.40;;
9102;SDS011;4587;51.434;6.788;2022-10-22T15:47:45;4.40;;;1.63;;
9102;SDS011;4587;51.434;6.788;2022-10-22T15:50:11;4.57;;;1.40;;
9102;SDS011;4587;51.434;6.788;2022-10-22T15:52:37;6.70;;;1.63;;
9102;SDS011;4587;51.434;6.788;2022-10-22T15:55:02;5.57;;;1.60;;
9102;SDS011;4587;51.434;6.788;2022-10-22T15:57:31;5.20;;;1.60;;
9102;SDS011;4587;51.434;6.788;2022-10-22T15:59:57;5.90;;;1.53;;
9102;SDS011;4587;51.434;6.788;2022-10-22T16:02:22;3.37;;;1.23;;
9102;SDS011;4587;51.434;6.788;2022-10-22T16:04:48;5.23;;;1.40;;
9102;SDS011;4587;51.434;6.788;2022-10-22T16:07:14;5.50;;;1.60;;
9102;SDS011;4587;51.434;6.788;2022-10-22T16:09:39;4.00;;;1.27;;
9102;SDS011;4587;51.434;6.788;2022-10-22T16:12:05;5.57;;;1.47;;
9102;SDS011;4587;51.434;6.788;2022-10-22T16:14:30;2.83;;;1.57;;
9102;SDS011;4587;51.434;6.788;2022-10-22T16:16:56;4.93;;;1.40;;
9102;SDS011;4587;51.434;6.788;2022-10-22T16:19:23;5.07;;;1.83;;
9102;SDS011;4587;51.434;6.788;2022-10-22T16:21:49;4.37;;;1.50;;
9102;SDS011;4587;51.434;6.788;2022-10-22T16:24:17;4.80;;;1.40;;
9102;SDS011;4587;51.434;6.788;2022-10-22T16:26:43;4.13;;;1.60;;
9102;SDS011;4587;51.434;6.788;2022-10-22T16:29:08;3.90;;;1.50;;
9102;SDS011;4587;51.434;6.788;2022-10-22T16:31:36;4.90;;;1.77;;
9102;SDS011;4587;51.434;6.788;2022-10-22T16:34:03;7.03;;;1.83;;
9102;SDS011;4587;51.434;6.788;2022-10-22T16:36:28;5.17;;;1.40;;
9102;SDS011;4587;51.434;6.788;2022-10-22T16:38:54;5.30;;;1.70;;
9102;SDS011;4587;51.434;6.788;2022-10-22T16:41:21;9.33;;;1.80;;
9102;SDS011;4587;51.434;6.788;2022-10-22T16:43:49;8.80;;;1.80;;
9102;SDS011;4587;51.434;6.788;2022-10-22T16:46:17;5.83;;;1.50;;
9102;SDS011;4587;51.434;6.788;2022-10-22T16:48:44;10.90;;;2.87;;
9102;SDS011;4587;51.434;6.788;2022-10-22T16:51:15;6.00;;;2.00;;
9102;SDS011;4587;51.434;6.788;2022-10-22T16:53:42;8.43;;;2.23;;
9102;SDS011;4587;51.434;6.788;2022-10-22T16:56:08;7.63;;;2.93;;
9102;SDS011;4587;51.434;6.788;2022-10-22T16:58:34;7.00;;;3.10;;
9102;SDS011;4587;51.434;6.788;2022-10-22T17:01:04;5.97;;;2.53;;
9102;SDS011;4587;51.434;6.788;2022-10-22T17:03:30;7.20;;;2.90;;
9102;SDS011;4587;51.434;6.788;2022-10-22T17:05:59;13.63;;;3.13;;
9102;SDS011;4587;51.434;6.788;2022-10-22T17:08:25;9.37;;;3.30;;
9102;SDS011;4587;51.434;6.788;2022-10-22T17:10:51;8.20;;;3.10;;
9102;SDS011;4587;51.434;6.788;2022-10-22T17:13:16;9.03;;;3.10;;
9102;SDS011;4587;51.434;6.788;2022-10-22T17:15:42;4.67;;;2.67;;
9102;SDS011;4587;51.434;6.788;2022-10-22T17:18:08;7.60;;;3.30;;